Time;durP1;ratioP1;P1;durP2;ratioP2;P2;SDS_P1;SDS_P2;PMS_P1;PMS_P2;Temp;Humidity;BMP_temperature;BMP_pressure;BME280_temperature;BME280_humidity;BME280_pressure;Samples;Min_cycle;Max_cycle;Signal;HPM_P1;HPM_P2
2023/03/09 00:01:37;;;;;;;2.78;2.00;;;;;;;;;;5113635;28;20418;-68
2023/03/09 00:04:04;;;;;;;5.03;2.00;;;;;;;;;;5113765;28;20494;-66
2023/03/09 00:06:31;;;;;;;3.30;1.48;;;;;;;;;;5113324;28;20048;-65
2023/03/09 00:08:58;;;;;;;1.88;1.52;;;;;;;;;;5113020;28;20079;-66
2023/03/09 00:11:26;;;;;;;4.97;1.55;;;;;;;;;;5113214;28;20047;-65
2023/03/09 00:13:53;;;;;;;4.20;2.08;;;;;;;;;;5113452;28;20554;-65
2023/03/09 00:16:21;;;;;;;5.50;2.05;;;;;;;;;;5113292;28;20051;-65
2023/03/09 00:18:50;;;;;;;3.65;1.80;;;;;;;;;;5113213;28;20059;-65
2023/03/09 00:21:34;;;;;;;5.50;2.08;;;;;;;;;;5113140;28;20134;-65
2023/03/09 00:24:01;;;;;;;4.30;1.73;;;;;;;;;;5113294;28;20039;-65
2023/03/09 00:26:29;;;;;;;2.00;1.55;;;;;;;;;;5112994;28;20047;-65
2023/03/09 00:28:55;;;;;;;4.05;1.70;;;;;;;;;;5112988;28;20039;-64
2023/03/09 00:31:22;;;;;;;3.88;1.50;;;;;;;;;;5113059;28;20090;-66
2023/03/09 00:33:49;;;;;;;2.83;1.45;;;;;;;;;;5113605;28;20043;-65
2023/03/09 00:36:16;;;;;;;4.13;1.60;;;;;;;;;;5112706;28;20044;-66
2023/03/09 00:38:43;;;;;;;3.83;1.60;;;;;;;;;;5112737;28;20040;-65
2023/03/09 00:41:10;;;;;;;8.32;1.80;;;;;;;;;;5112868;28;20046;-65
2023/03/09 00:43:38;;;;;;;2.58;1.30;;;;;;;;;;5112817;28;20487;-65
2023/03/09 00:46:05;;;;;;;4.60;1.20;;;;;;;;;;5112272;28;20047;-66
2023/03/09 00:48:31;;;;;;;2.95;1.40;;;;;;;;;;5112460;28;20058;-65
2023/03/09 00:50:58;;;;;;;2.58;1.20;;;;;;;;;;5112463;28;20048;-64
2023/03/09 00:53:24;;;;;;;4.10;1.20;;;;;;;;;;5112428;28;20039;-65
2023/03/09 00:55:51;;;;;;;2.83;1.45;;;;;;;;;;5113124;28;20044;-65
2023/03/09 00:58:18;;;;;;;1.65;1.10;;;;;;;;;;5112646;28;20040;-65
2023/03/09 01:00:46;;;;;;;3.65;1.10;;;;;;;;;;5113020;28;20050;-63
2023/03/09 01:03:12;;;;;;;3.65;1.30;;;;;;;;;;5111959;28;20229;-65
2023/03/09 01:05:39;;;;;;;2.63;1.50;;;;;;;;;;5112432;28;20039;-65
2023/03/09 01:08:06;;;;;;;4.40;1.20;;;;;;;;;;5111836;28;20051;-66
2023/03/09 01:10:32;;;;;;;6.13;1.27;;;;;;;;;;5112446;28;20134;-65
2023/03/09 01:12:59;;;;;;;3.92;1.23;;;;;;;;;;5111797;28;20126;-64
2023/03/09 01:15:25;;;;;;;5.03;1.58;;;;;;;;;;5112391;28;20047;-65
2023/03/09 01:17:53;;;;;;;4.00;1.10;;;;;;;;;;5111464;28;20047;-64
2023/03/09 01:20:20;;;;;;;1.20;0.80;;;;;;;;;;5112320;28;20043;-64
2023/03/09 01:22:47;;;;;;;3.20;1.10;;;;;;;;;;5111719;28;20043;-65
2023/03/09 01:25:13;;;;;;;1.45;0.93;;;;;;;;;;5112422;28;20491;-66
2023/03/09 01:27:40;;;;;;;2.33;0.90;;;;;;;;;;5111404;28;20059;-65
2023/03/09 01:30:08;;;;;;;2.03;1.00;;;;;;;;;;5111529;28;20506;-65
2023/03/09 01:32:35;;;;;;;2.50;0.90;;;;;;;;;;5111952;28;20050;-65
2023/03/09 01:35:03;;;;;;;2.80;0.95;;;;;;;;;;5111591;28;20043;-65
2023/03/09 01:37:30;;;;;;;3.47;0.98;;;;;;;;;;5111600;28;20043;-66
2023/03/09 01:39:56;;;;;;;0.60;0.60;;;;;;;;;;5112277;28;20418;-65
2023/03/09 01:42:23;;;;;;;2.35;0.90;;;;;;;;;;5112233;28;20052;-66
2023/03/09 01:45:28;;;;;;;2.10;0.90;;;;;;;;;;5111728;28;20519;-65
2023/03/09 01:47:58;;;;;;;1.17;0.70;;;;;;;;;;5111415;28;20417;-66
2023/03/09 01:50:30;;;;;;;1.40;0.82;;;;;;;;;;5112674;28;20495;-66
2023/03/09 01:52:59;;;;;;;2.90;0.80;;;;;;;;;;5111562;28;20051;-67
2023/03/09 01:55:30;;;;;;;2.90;1.02;;;;;;;;;;5111383;28;20050;-65
2023/03/09 01:58:00;;;;;;;2.78;0.90;;;;;;;;;;5112118;28;20398;-65
2023/03/09 02:00:27;;;;;;;1.20;0.82;;;;;;;;;;5111299;28;20512;-65
2023/03/09 02:02:57;;;;;;;2.03;0.90;;;;;;;;;;5111553;28;20050;-66
2023/03/09 02:05:32;;;;;;;2.67;0.80;;;;;;;;;;5111328;28;20067;-64
2023/03/09 02:08:00;;;;;;;4.50;1.00;;;;;;;;;;5110759;28;20062;-65
2023/03/09 02:10:30;;;;;;;1.52;0.82;;;;;;;;;;5111153;28;20088;-63
2023/03/09 02:13:00;;;;;;;2.20;1.02;;;;;;;;;;5111259;28;20070;-65
2023/03/09 02:15:27;;;;;;;2.95;0.80;;;;;;;;;;5111065;28;20383;-65
2023/03/09 02:17:54;;;;;;;4.22;0.98;;;;;;;;;;5111203;28;20180;-65
2023/03/09 02:20:25;;;;;;;2.45;1.10;;;;;;;;;;5110564;28;20498;-65
2023/03/09 02:22:53;;;;;;;2.95;0.93;;;;;;;;;;5111162;28;20047;-64
2023/03/09 02:25:27;;;;;;;0.75;0.60;;;;;;;;;;5110831;28;20047;-64
2023/03/09 02:27:56;;;;;;;3.38;0.88;;;;;;;;;;5110805;28;20043;-66
2023/03/09 02:30:25;;;;;;;2.72;0.93;;;;;;;;;;5110549;28;20387;-66
2023/03/09 02:32:52;;;;;;;2.55;0.70;;;;;;;;;;5110746;28;20052;-66
2023/03/09 02:35:18;;;;;;;1.90;0.95;;;;;;;;;;5110705;28;20406;-65
2023/03/09 02:37:45;;;;;;;4.50;0.82;;;;;;;;;;5110696;28;20415;-64
2023/03/09 02:40:15;;;;;;;1.65;1.00;;;;;;;;;;5110581;28;20432;-66
2023/03/09 02:42:43;;;;;;;3.55;0.98;;;;;;;;;;5109870;28;20065;-65
2023/03/09 02:45:13;;;;;;;2.55;0.88;;;;;;;;;;5110341;28;20043;-65
2023/03/09 02:47:39;;;;;;;3.65;1.20;;;;;;;;;;5110394;28;20050;-65
2023/03/09 02:50:06;;;;;;;3.60;1.48;;;;;;;;;;5110577;28;20040;-66
2023/03/09 02:52:33;;;;;;;1.23;0.90;;;;;;;;;;5110901;28;20073;-65
2023/03/09 02:54:59;;;;;;;4.47;0.88;;;;;;;;;;5110447;28;20518;-65
2023/03/09 02:57:26;;;;;;;2.33;1.05;;;;;;;;;;5110236;28;20048;-65
2023/03/09 02:59:53;;;;;;;2.47;1.05;;;;;;;;;;5110233;28;20043;-66
2023/03/09 03:02:20;;;;;;;3.35;1.10;;;;;;;;;;5110334;28;20046;-66
2023/03/09 03:04:47;;;;;;;1.88;1.27;;;;;;;;;;5110535;28;20043;-66
2023/03/09 03:07:14;;;;;;;3.28;1.13;;;;;;;;;;5110362;28;20051;-66
2023/03/09 03:09:40;;;;;;;2.60;0.90;;;;;;;;;;5110888;28;20047;-66
2023/03/09 03:12:07;;;;;;;2.22;0.85;;;;;;;;;;5110362;28;20513;-66
2023/03/09 03:14:34;;;;;;;2.38;1.10;;;;;;;;;;5110134;28;20058;-66
2023/03/09 03:17:00;;;;;;;1.75;0.90;;;;;;;;;;5110189;28;20040;-65
2023/03/09 03:19:28;;;;;;;4.78;1.35;;;;;;;;;;5110569;28;20380;-66
2023/03/09 03:21:55;;;;;;;2.60;1.10;;;;;;;;;;5110644;28;20144;-66
2023/03/09 03:24:21;;;;;;;3.20;1.08;;;;;;;;;;5110385;28;20406;-66
2023/03/09 03:26:48;;;;;;;5.72;1.15;;;;;;;;;;5110539;28;20054;-65
2023/03/09 03:29:14;;;;;;;3.10;1.40;;;;;;;;;;5110103;28;20044;-66
2023/03/09 03:31:41;;;;;;;2.53;1.10;;;;;;;;;;5110175;28;20044;-66
2023/03/09 03:34:08;;;;;;;4.70;1.20;;;;;;;;;;5110166;28;20040;-66
2023/03/09 03:36:36;;;;;;;4.43;1.08;;;;;;;;;;5109713;28;20043;-65
2023/03/09 03:39:04;;;;;;;3.05;1.08;;;;;;;;;;5109893;28;20043;-66
2023/03/09 03:41:31;;;;;;;3.78;1.33;;;;;;;;;;5109684;28;20039;-65
2023/03/09 03:43:58;;;;;;;2.35;1.05;;;;;;;;;;5110099;28;20430;-65
2023/03/09 03:46:24;;;;;;;5.03;1.10;;;;;;;;;;5109940;28;20044;-66
2023/03/09 03:48:51;;;;;;;5.80;1.50;;;;;;;;;;5109676;28;20047;-66
2023/03/09 03:51:17;;;;;;;3.78;1.10;;;;;;;;;;5109989;28;20058;-65
2023/03/09 03:53:45;;;;;;;4.55;1.38;;;;;;;;;;5112114;28;20052;-65
2023/03/09 03:56:12;;;;;;;3.35;1.05;;;;;;;;;;5113592;28;20068;-65
2023/03/09 03:58:38;;;;;;;6.47;1.25;;;;;;;;;;5113690;28;20471;-66
2023/03/09 04:01:05;;;;;;;6.78;1.20;;;;;;;;;;5114104;28;20039;-66
2023/03/09 04:03:32;;;;;;;3.38;1.23;;;;;;;;;;5113528;28;20048;-65
2023/03/09 04:05:58;;;;;;;6.95;1.25;;;;;;;;;;5113742;28;20044;-65
2023/03/09 04:08:25;;;;;;;4.40;1.45;;;;;;;;;;5124294;22;20406;-65
2023/03/09 04:10:52;;;;;;;3.50;1.40;;;;;;;;;;5113028;28;20498;-65
2023/03/09 04:13:19;;;;;;;7.40;2.05;;;;;;;;;;5112954;28;20047;-65
2023/03/09 04:15:46;;;;;;;7.70;1.77;;;;;;;;;;5113656;28;20040;-65
2023/03/09 04:18:12;;;;;;;6.80;1.38;;;;;;;;;;5112565;28;20070;-66
2023/03/09 04:20:40;;;;;;;3.88;1.30;;;;;;;;;;5113220;28;20532;-66
2023/03/09 04:23:07;;;;;;;2.88;1.23;;;;;;;;;;5112443;28;20383;-65
2023/03/09 04:25:33;;;;;;;5.43;1.30;;;;;;;;;;5112964;28;20472;-66
2023/03/09 04:28:02;;;;;;;10.63;1.83;;;;;;;;;;5112183;28;20039;-65
2023/03/09 04:30:30;;;;;;;7.85;1.70;;;;;;;;;;5112927;28;20131;-66
2023/03/09 04:32:56;;;;;;;7.03;2.22;;;;;;;;;;5112799;28;20046;-66
2023/03/09 04:35:23;;;;;;;7.93;2.28;;;;;;;;;;5112733;28;20414;-65
2023/03/09 04:37:51;;;;;;;6.15;1.80;;;;;;;;;;5112236;28;20040;-66
2023/03/09 04:40:18;;;;;;;14.98;2.47;;;;;;;;;;5112502;28;20105;-65
2023/03/09 04:42:45;;;;;;;10.23;2.60;;;;;;;;;;5112696;28;20055;-66
2023/03/09 04:45:13;;;;;;;5.72;1.77;;;;;;;;;;5112364;28;20040;-65
2023/03/09 04:47:39;;;;;;;7.38;1.75;;;;;;;;;;5112472;28;20410;-65
2023/03/09 04:50:06;;;;;;;9.32;1.98;;;;;;;;;;5112094;28;20040;-65
2023/03/09 04:52:33;;;;;;;8.90;2.38;;;;;;;;;;5112036;28;20092;-65
2023/03/09 04:54:59;;;;;;;14.00;2.55;;;;;;;;;;5111985;28;20403;-66
2023/03/09 04:57:27;;;;;;;11.75;2.67;;;;;;;;;;5112081;28;20052;-65
2023/03/09 04:59:54;;;;;;;8.07;2.58;;;;;;;;;;5112052;28;20552;-65
2023/03/09 05:02:22;;;;;;;9.10;2.58;;;;;;;;;;5112352;28;20071;-65
2023/03/09 05:04:49;;;;;;;9.40;2.53;;;;;;;;;;5110467;28;20046;-65
2023/03/09 05:07:15;;;;;;;10.43;2.35;;;;;;;;;;5112052;28;20043;-66
2023/03/09 05:09:42;;;;;;;21.50;4.00;;;;;;;;;;5111738;28;20494;-66
2023/03/09 05:12:08;;;;;;;10.57;3.00;;;;;;;;;;5112028;28;20044;-65
2023/03/09 05:14:35;;;;;;;14.20;3.13;;;;;;;;;;5111584;28;20043;-66
2023/03/09 05:17:02;;;;;;;11.68;2.92;;;;;;;;;;5111754;28;20520;-65
2023/03/09 05:19:29;;;;;;;12.18;3.33;;;;;;;;;;5111571;28;20048;-67
2023/03/09 05:21:56;;;;;;;10.15;2.53;;;;;;;;;;5112436;28;20051;-65
2023/03/09 05:24:23;;;;;;;9.77;3.13;;;;;;;;;;5111870;28;20054;-67
2023/03/09 05:26:49;;;;;;;11.77;3.38;;;;;;;;;;5111793;28;20044;-67
2023/03/09 05:29:16;;;;;;;10.63;3.20;;;;;;;;;;5111634;28;20046;-67
2023/03/09 05:31:42;;;;;;;10.20;2.95;;;;;;;;;;5111498;28;20410;-67
2023/03/09 05:34:09;;;;;;;12.32;3.67;;;;;;;;;;5111301;28;20044;-67
2023/03/09 05:36:36;;;;;;;9.60;3.33;;;;;;;;;;5111365;28;20040;-67
2023/03/09 05:39:04;;;;;;;6.32;2.78;;;;;;;;;;5111413;28;20044;-67
2023/03/09 05:41:31;;;;;;;13.55;3.30;;;;;;;;;;5111285;28;20537;-66
2023/03/09 05:43:59;;;;;;;10.90;3.38;;;;;;;;;;5111219;28;20044;-67
2023/03/09 05:46:26;;;;;;;8.50;2.90;;;;;;;;;;5111053;28;20054;-67
2023/03/09 05:48:52;;;;;;;12.38;3.53;;;;;;;;;;5111187;28;20510;-67
2023/03/09 05:51:19;;;;;;;8.05;3.60;;;;;;;;;;5110949;28;20050;-67
2023/03/09 05:53:47;;;;;;;8.70;2.92;;;;;;;;;;5111262;28;20043;-67
2023/03/09 05:56:14;;;;;;;9.80;3.10;;;;;;;;;;5110916;28;20417;-67
2023/03/09 05:58:40;;;;;;;9.55;3.13;;;;;;;;;;5110661;28;20410;-67
2023/03/09 06:01:17;;;;;;;10.90;3.03;;;;;;;;;;5110630;28;20044;-67
2023/03/09 06:03:43;;;;;;;9.95;2.80;;;;;;;;;;5111016;28;20050;-67
2023/03/09 06:06:10;;;;;;;6.93;2.28;;;;;;;;;;5110751;28;20478;-66
2023/03/09 06:08:37;;;;;;;10.48;2.60;;;;;;;;;;5110599;28;20514;-67
2023/03/09 06:11:05;;;;;;;8.50;3.10;;;;;;;;;;5110732;28;20039;-67
2023/03/09 06:13:31;;;;;;;11.00;2.95;;;;;;;;;;5110526;28;20438;-67
2023/03/09 06:15:58;;;;;;;3.75;2.20;;;;;;;;;;5110630;28;20051;-67
2023/03/09 06:18:26;;;;;;;3.33;1.80;;;;;;;;;;5110652;28;20051;-66
2023/03/09 06:20:52;;;;;;;4.63;2.50;;;;;;;;;;5111119;28;20044;-68
2023/03/09 06:23:19;;;;;;;11.52;2.80;;;;;;;;;;5110733;28;20047;-66
2023/03/09 06:25:45;;;;;;;5.88;2.20;;;;;;;;;;5111129;28;20414;-66
2023/03/09 06:28:13;;;;;;;6.10;2.20;;;;;;;;;;5109969;28;20462;-66
2023/03/09 06:30:40;;;;;;;8.55;2.05;;;;;;;;;;5110727;28;20050;-66
2023/03/09 06:33:06;;;;;;;2.92;1.75;;;;;;;;;;5110381;28;20043;-68
2023/03/09 06:35:34;;;;;;;4.28;2.05;;;;;;;;;;5110649;28;20051;-66
2023/03/09 06:38:01;;;;;;;5.88;2.03;;;;;;;;;;5110063;28;20401;-66
2023/03/09 06:40:28;;;;;;;3.55;2.03;;;;;;;;;;5110336;28;20620;-66
2023/03/09 06:42:54;;;;;;;6.43;2.00;;;;;;;;;;5109537;28;20360;-66
2023/03/09 06:45:22;;;;;;;4.82;1.70;;;;;;;;;;5110253;28;20046;-66
2023/03/09 06:47:49;;;;;;;3.83;1.70;;;;;;;;;;5109935;28;20548;-66
2023/03/09 06:50:16;;;;;;;7.90;4.38;;;;;;;;;;5110229;28;20044;-66
2023/03/09 06:52:42;;;;;;;9.00;2.72;;;;;;;;;;5110012;28;20041;-66
2023/03/09 06:55:09;;;;;;;8.77;2.90;;;;;;;;;;5109984;28;20048;-66
2023/03/09 06:57:37;;;;;;;11.23;2.72;;;;;;;;;;5109340;28;20052;-66
2023/03/09 07:00:06;;;;;;;8.82;3.05;;;;;;;;;;5110281;28;20055;-66
2023/03/09 07:02:34;;;;;;;8.80;2.42;;;;;;;;;;5109972;28;20044;-66
2023/03/09 07:05:00;;;;;;;5.35;2.28;;;;;;;;;;5109823;28;20229;-66
2023/03/09 07:07:27;;;;;;;7.50;2.40;;;;;;;;;;5109822;28;20483;-66
2023/03/09 07:09:53;;;;;;;8.15;2.25;;;;;;;;;;5109413;28;20043;-66
2023/03/09 07:12:20;;;;;;;6.60;2.33;;;;;;;;;;5110030;28;20056;-66
2023/03/09 07:14:46;;;;;;;7.70;2.50;;;;;;;;;;5109819;28;20043;-66
2023/03/09 07:17:14;;;;;;;7.80;2.70;;;;;;;;;;5109836;28;20065;-66
2023/03/09 07:19:42;;;;;;;4.85;2.78;;;;;;;;;;5109848;28;20396;-66
2023/03/09 07:22:11;;;;;;;9.63;3.15;;;;;;;;;;5110184;28;20050;-66
2023/03/09 07:24:38;;;;;;;6.57;1.95;;;;;;;;;;5109407;28;20047;-67
2023/03/09 07:27:05;;;;;;;9.13;2.33;;;;;;;;;;5110112;28;20407;-66
2023/03/09 07:29:31;;;;;;;13.30;3.25;;;;;;;;;;5113772;28;20055;-66
2023/03/09 07:31:58;;;;;;;8.38;1.98;;;;;;;;;;5114597;28;20075;-66
2023/03/09 07:34:25;;;;;;;5.25;2.00;;;;;;;;;;5113758;28;20047;-66
2023/03/09 07:36:53;;;;;;;7.35;2.72;;;;;;;;;;5113674;28;20460;-66
2023/03/09 07:39:19;;;;;;;7.75;2.38;;;;;;;;;;5113921;28;20044;-66
2023/03/09 07:41:46;;;;;;;6.15;2.35;;;;;;;;;;5114086;28;20336;-66
2023/03/09 07:44:12;;;;;;;6.55;2.38;;;;;;;;;;5113412;28;20419;-66
2023/03/09 07:46:39;;;;;;;6.95;2.08;;;;;;;;;;5113701;28;20054;-66
2023/03/09 07:49:05;;;;;;;6.47;1.98;;;;;;;;;;5113150;28;20052;-66
2023/03/09 07:51:32;;;;;;;7.40;3.15;;;;;;;;;;5113340;28;20066;-66
2023/03/09 07:54:00;;;;;;;8.00;2.92;;;;;;;;;;5113608;28;20108;-66
2023/03/09 07:56:26;;;;;;;8.32;2.40;;;;;;;;;;5113317;28;20044;-66
2023/03/09 07:58:54;;;;;;;12.77;3.83;;;;;;;;;;5113488;28;20044;-66
2023/03/09 08:01:21;;;;;;;6.43;2.45;;;;;;;;;;5113256;28;20055;-66
2023/03/09 08:03:48;;;;;;;5.10;2.13;;;;;;;;;;5113593;28;20390;-66
2023/03/09 08:06:15;;;;;;;8.88;2.38;;;;;;;;;;5112877;28;20039;-66
2023/03/09 08:08:41;;;;;;;7.22;2.67;;;;;;;;;;5112959;28;20630;-66
2023/03/09 08:11:09;;;;;;;5.25;2.17;;;;;;;;;;5112953;28;20044;-66
2023/03/09 08:13:36;;;;;;;7.22;2.08;;;;;;;;;;5113062;28;20051;-66
2023/03/09 08:16:05;;;;;;;5.57;2.05;;;;;;;;;;5112970;28;20517;-66
2023/03/09 08:18:32;;;;;;;6.90;2.25;;;;;;;;;;5112667;28;20046;-66
2023/03/09 08:21:04;;;;;;;7.63;1.88;;;;;;;;;;5112691;28;20495;-66
2023/03/09 08:23:30;;;;;;;6.53;1.63;;;;;;;;;;5112885;28;20040;-66
2023/03/09 08:25:57;;;;;;;10.23;2.50;;;;;;;;;;5112939;28;20044;-66
2023/03/09 08:28:24;;;;;;;6.43;2.05;;;;;;;;;;5112565;28;20131;-66
2023/03/09 08:30:51;;;;;;;8.20;2.25;;;;;;;;;;5112756;28;20047;-66
2023/03/09 08:33:17;;;;;;;12.00;2.50;;;;;;;;;;5112394;28;20048;-66
2023/03/09 08:35:44;;;;;;;6.18;2.20;;;;;;;;;;5113066;28;20367;-66
2023/03/09 08:38:11;;;;;;;5.20;1.90;;;;;;;;;;5112711;28;20044;-66
2023/03/09 08:40:38;;;;;;;6.88;1.77;;;;;;;;;;5112884;28;20040;-66
2023/03/09 08:43:05;;;;;;;5.50;1.67;;;;;;;;;;5112718;28;20043;-66
2023/03/09 08:45:33;;;;;;;5.47;2.25;;;;;;;;;;5112615;28;20514;-66
2023/03/09 08:47:59;;;;;;;10.70;2.38;;;;;;;;;;5111968;28;20059;-66
2023/03/09 08:50:26;;;;;;;10.02;2.10;;;;;;;;;;5112855;28;20291;-66
2023/03/09 08:52:52;;;;;;;8.57;2.45;;;;;;;;;;5112033;28;20048;-66
2023/03/09 08:55:19;;;;;;;5.13;1.55;;;;;;;;;;5112455;28;20059;-67
2023/03/09 08:57:46;;;;;;;10.05;2.10;;;;;;;;;;5112039;28;20407;-66
2023/03/09 09:00:14;;;;;;;11.70;2.75;;;;;;;;;;5112183;28;20392;-66
2023/03/09 09:02:41;;;;;;;8.88;2.10;;;;;;;;;;5112042;28;20062;-66
2023/03/09 09:05:09;;;;;;;9.48;2.55;;;;;;;;;;5112398;28;20707;-67
2023/03/09 09:07:35;;;;;;;10.82;2.72;;;;;;;;;;5111830;28;20388;-66
2023/03/09 09:10:02;;;;;;;10.20;2.15;;;;;;;;;;5111982;28;20047;-66
2023/03/09 09:12:32;;;;;;;9.95;2.25;;;;;;;;;;5111707;28;20050;-66
2023/03/09 09:14:59;;;;;;;8.93;1.55;;;;;;;;;;5111724;28;20360;-66
2023/03/09 09:17:25;;;;;;;4.95;1.60;;;;;;;;;;5111574;28;20406;-66
2023/03/09 09:19:53;;;;;;;7.47;2.30;;;;;;;;;;5112011;28;20525;-67
2023/03/09 09:22:20;;;;;;;10.63;2.30;;;;;;;;;;5111829;28;20039;-66
2023/03/09 09:24:46;;;;;;;7.47;2.40;;;;;;;;;;5111714;28;20050;-66
2023/03/09 09:27:13;;;;;;;9.85;2.67;;;;;;;;;;5111182;28;20052;-66
2023/03/09 09:29:40;;;;;;;9.00;2.00;;;;;;;;;;5111388;28;20410;-66
2023/03/09 09:32:08;;;;;;;12.55;3.05;;;;;;;;;;5111832;28;20056;-66
2023/03/09 09:34:35;;;;;;;10.27;2.30;;;;;;;;;;5111666;28;20047;-66
2023/03/09 09:37:05;;;;;;;17.30;5.40;;;;;;;;;;5111296;28;20046;-66
2023/03/09 09:39:33;;;;;;;7.60;2.17;;;;;;;;;;5111276;28;20051;-66
2023/03/09 09:42:02;;;;;;;13.45;4.88;;;;;;;;;;5111497;28;20051;-66
2023/03/09 09:44:32;;;;;;;15.98;4.28;;;;;;;;;;5111370;28;20120;-66
2023/03/09 09:47:03;;;;;;;7.43;2.40;;;;;;;;;;5112018;28;20039;-66
2023/03/09 09:49:32;;;;;;;14.60;5.43;;;;;;;;;;5111533;28;20040;-66
2023/03/09 09:52:32;;;;;;;14.65;3.58;;;;;;;;;;5110865;28;20044;-66
2023/03/09 09:55:04;;;;;;;30.55;8.95;;;;;;;;;;5055554;28;20057;-66
2023/03/09 09:57:39;;;;;;;22.15;6.50;;;;;;;;;;5111371;28;20047;-66
2023/03/09 10:00:11;;;;;;;10.02;2.58;;;;;;;;;;5110850;28;20047;-66
2023/03/09 10:02:45;;;;;;;5.53;1.70;;;;;;;;;;5111575;28;20054;-66
2023/03/09 10:05:18;;;;;;;7.30;3.35;;;;;;;;;;5110804;28;20054;-66
2023/03/09 10:07:46;;;;;;;6.85;2.15;;;;;;;;;;5110996;28;20505;-66
2023/03/09 10:10:18;;;;;;;9.73;2.53;;;;;;;;;;5122436;22;20051;-65
2023/03/09 10:12:46;;;;;;;8.32;2.80;;;;;;;;;;5111486;28;20039;-65
2023/03/09 10:15:17;;;;;;;11.07;5.53;;;;;;;;;;5110915;28;20052;-65
2023/03/09 10:17:49;;;;;;;6.68;1.80;;;;;;;;;;5111415;28;20077;-66
2023/03/09 10:20:21;;;;;;;5.63;1.73;;;;;;;;;;5110929;28;20476;-66
2023/03/09 10:22:54;;;;;;;10.63;2.13;;;;;;;;;;5111070;28;20043;-65
2023/03/09 10:25:22;;;;;;;;;;;;;;;;;;5111176;28;20044;-65
2023/03/09 10:27:56;;;;;;;6.55;1.85;;;;;;;;;;5110425;28;19926;-65
2023/03/09 10:30:33;;;;;;;8.52;2.78;;;;;;;;;;5110878;28;20457;-65
2023/03/09 10:33:06;;;;;;;9.05;2.20;;;;;;;;;;5110412;28;20043;-65
2023/03/09 10:35:40;;;;;;;6.25;2.17;;;;;;;;;;5110542;28;20048;-65
2023/03/09 10:38:12;;;;;;;10.30;2.22;;;;;;;;;;5110275;28;20050;-66
2023/03/09 10:40:43;;;;;;;6.43;1.63;;;;;;;;;;5110745;28;20044;-65
2023/03/09 10:43:15;;;;;;;8.30;2.17;;;;;;;;;;5110480;28;20134;-65
2023/03/09 10:45:42;;;;;;;7.78;2.08;;;;;;;;;;5110590;28;20086;-66
2023/03/09 10:48:20;;;;;;;6.38;2.13;;;;;;;;;;5110482;28;20044;-65
2023/03/09 10:50:57;;;;;;;12.25;3.83;;;;;;;;;;5110664;28;20047;-65
2023/03/09 10:53:29;;;;;;;7.47;2.22;;;;;;;;;;5111057;28;20459;-65
2023/03/09 10:56:04;;;;;;;7.60;2.13;;;;;;;;;;5110704;28;20395;-65
2023/03/09 10:58:31;;;;;;;9.73;2.30;;;;;;;;;;5110556;28;20044;-65
2023/03/09 11:01:01;;;;;;;11.25;2.33;;;;;;;;;;5110573;28;20134;-65
2023/03/09 11:03:33;;;;;;;9.77;1.80;;;;;;;;;;5112550;28;20079;-65
2023/03/09 11:06:22;;;;;;;9.30;1.87;;;;;;;;;;5114912;28;20505;-66
2023/03/09 11:09:04;;;;;;;8.75;1.77;;;;;;;;;;5114696;28;20789;-65
2023/03/09 11:11:31;;;;;;;7.05;1.90;;;;;;;;;;5114280;28;20537;-65
2023/03/09 11:13:58;;;;;;;5.53;1.77;;;;;;;;;;5114453;28;20053;-66
2023/03/09 11:16:27;;;;;;;8.40;2.03;;;;;;;;;;5114618;28;20402;-65
2023/03/09 11:19:07;;;;;;;7.18;2.15;;;;;;;;;;5114902;28;20043;-65
2023/03/09 11:21:35;;;;;;;9.50;1.98;;;;;;;;;;5114847;28;20380;-65
2023/03/09 11:24:04;;;;;;;7.28;2.30;;;;;;;;;;5114323;28;20521;-64
2023/03/09 11:26:35;;;;;;;10.75;2.97;;;;;;;;;;5114366;28;20131;-64
2023/03/09 11:29:08;;;;;;;8.85;2.47;;;;;;;;;;5114593;28;20043;-64
2023/03/09 11:31:37;;;;;;;9.73;2.10;;;;;;;;;;5103379;28;20047;-63
2023/03/09 11:34:07;;;;;;;7.43;1.88;;;;;;;;;;5094022;28;20521;-64
2023/03/09 11:36:39;;;;;;;10.77;1.95;;;;;;;;;;5093188;28;20058;-64
2023/03/09 11:39:17;;;;;;;7.72;2.58;;;;;;;;;;5094052;28;20517;-64
2023/03/09 11:41:44;;;;;;;8.32;2.38;;;;;;;;;;5093717;28;20130;-64
2023/03/09 11:44:19;;;;;;;7.32;1.58;;;;;;;;;;5093666;28;20054;-64
2023/03/09 11:46:47;;;;;;;10.07;2.25;;;;;;;;;;5093669;28;20055;-64
2023/03/09 11:49:18;;;;;;;9.95;1.80;;;;;;;;;;5092658;28;20150;-64
2023/03/09 11:51:48;;;;;;;7.47;1.80;;;;;;;;;;5093783;28;20055;-64
2023/03/09 11:54:26;;;;;;;8.93;1.67;;;;;;;;;;5093212;28;20494;-64
2023/03/09 11:56:54;;;;;;;9.20;1.70;;;;;;;;;;5093926;28;20470;-64
2023/03/09 11:59:24;;;;;;;13.55;2.30;;;;;;;;;;5093418;28;20051;-64
2023/03/09 12:01:55;;;;;;;9.18;2.15;;;;;;;;;;5093955;28;20048;-64
2023/03/09 12:04:21;;;;;;;8.38;2.30;;;;;;;;;;5093376;28;20050;-64
2023/03/09 12:06:55;;;;;;;8.90;2.50;;;;;;;;;;5093640;28;20040;-64
2023/03/09 12:09:46;;;;;;;6.00;2.05;;;;;;;;;;5092969;28;20055;-64
2023/03/09 12:12:23;;;;;;;9.15;2.08;;;;;;;;;;5093218;28;20426;-64
2023/03/09 12:14:53;;;;;;;6.32;1.75;;;;;;;;;;5092454;28;20048;-64
2023/03/09 12:17:22;;;;;;;13.40;2.63;;;;;;;;;;5092395;28;20048;-64
2023/03/09 12:19:53;;;;;;;8.98;1.80;;;;;;;;;;5093392;28;20048;-64
2023/03/09 12:22:26;;;;;;;7.40;1.70;;;;;;;;;;5093054;28;20048;-64
2023/03/09 12:25:00;;;;;;;8.02;1.92;;;;;;;;;;5092984;28;20044;-65
2023/03/09 12:27:29;;;;;;;6.45;1.80;;;;;;;;;;5093167;28;20046;-63
2023/03/09 12:30:09;;;;;;;5.47;1.70;;;;;;;;;;5092394;28;20044;-64
2023/03/09 12:32:42;;;;;;;7.03;1.70;;;;;;;;;;5093117;28;20055;-64
2023/03/09 12:35:41;;;;;;;8.77;2.20;;;;;;;;;;5092287;28;20092;-64
2023/03/09 12:38:26;;;;;;;7.32;1.73;;;;;;;;;;5095136;28;20063;-64
2023/03/09 12:40:54;;;;;;;6.47;1.98;;;;;;;;;;5113137;28;20510;-64
2023/03/09 12:43:52;;;;;;;10.68;1.63;;;;;;;;;;5112683;28;20257;-64
2023/03/09 12:46:49;;;;;;;5.63;1.25;;;;;;;;;;5112965;28;20474;-64
2023/03/09 12:49:19;;;;;;;6.68;1.67;;;;;;;;;;5108476;28;20046;-64
2023/03/09 12:51:49;;;;;;;5.85;1.80;;;;;;;;;;5111590;28;20044;-64
2023/03/09 12:54:24;;;;;;;8.60;1.90;;;;;;;;;;5112459;28;20048;-63
2023/03/09 12:56:54;;;;;;;10.10;2.00;;;;;;;;;;5112254;28;20048;-64
2023/03/09 12:59:25;;;;;;;5.20;1.70;;;;;;;;;;5112749;28;20048;-64
2023/03/09 13:01:52;;;;;;;7.28;1.80;;;;;;;;;;5112657;28;20079;-64
2023/03/09 13:04:22;;;;;;;7.65;2.65;;;;;;;;;;5112626;28;20061;-64
2023/03/09 13:06:55;;;;;;;16.20;2.47;;;;;;;;;;5112781;28;20406;-64
2023/03/09 13:09:27;;;;;;;9.88;2.38;;;;;;;;;;5102165;28;20054;-63
2023/03/09 13:12:04;;;;;;;8.23;2.13;;;;;;;;;;5092139;28;20075;-65
2023/03/09 13:15:06;;;;;;;8.95;2.15;;;;;;;;;;5091999;28;20058;-64
2023/03/09 13:17:38;;;;;;;8.70;2.35;;;;;;;;;;5094311;28;20631;-64
2023/03/09 13:20:23;;;;;;;6.53;1.73;;;;;;;;;;5092398;28;20051;-64
2023/03/09 13:22:51;;;;;;;17.58;3.13;;;;;;;;;;5091933;28;20080;-65
2023/03/09 13:25:34;;;;;;;6.18;1.92;;;;;;;;;;5091078;28;20044;-64
2023/03/09 13:28:13;;;;;;;10.85;2.30;;;;;;;;;;5091186;28;20079;-65
2023/03/09 13:30:44;;;;;;;10.18;2.53;;;;;;;;;;5091815;28;20044;-63
2023/03/09 13:33:20;;;;;;;11.57;2.00;;;;;;;;;;5090736;28;20040;-64
2023/03/09 13:35:54;;;;;;;14.00;2.92;;;;;;;;;;5092099;28;20051;-64
2023/03/09 13:38:25;;;;;;;10.32;2.83;;;;;;;;;;5091151;28;20044;-64
2023/03/09 13:40:54;;;;;;;10.63;3.15;;;;;;;;;;5091667;28;20044;-64
2023/03/09 13:43:27;;;;;;;13.88;3.60;;;;;;;;;;5091228;28;20044;-64
2023/03/09 13:45:57;;;;;;;11.15;3.35;;;;;;;;;;5090930;28;20135;-64
2023/03/09 13:48:24;;;;;;;11.45;2.65;;;;;;;;;;5090795;28;20051;-65
2023/03/09 13:50:51;;;;;;;9.02;2.55;;;;;;;;;;5091356;28;20044;-65
2023/03/09 13:53:25;;;;;;;8.82;2.88;;;;;;;;;;5111551;28;20344;-64
2023/03/09 13:55:57;;;;;;;13.57;2.75;;;;;;;;;;5111599;28;20043;-64
2023/03/09 13:58:29;;;;;;;12.60;3.03;;;;;;;;;;5111265;28;20344;-64
2023/03/09 14:00:58;;;;;;;11.57;2.70;;;;;;;;;;5111324;28;20048;-64
2023/03/09 14:03:28;;;;;;;10.65;2.63;;;;;;;;;;5111522;28;20126;-64
2023/03/09 14:05:58;;;;;;;11.70;2.33;;;;;;;;;;5111664;28;20139;-64
2023/03/09 14:08:27;;;;;;;11.95;2.15;;;;;;;;;;5111529;28;20460;-64
2023/03/09 14:10:54;;;;;;;9.23;2.80;;;;;;;;;;5111083;28;20044;-64
2023/03/09 14:13:23;;;;;;;8.07;2.28;;;;;;;;;;5111151;28;20079;-64
2023/03/09 14:16:02;;;;;;;12.50;2.58;;;;;;;;;;5110884;28;20048;-65
2023/03/09 14:18:37;;;;;;;12.70;2.85;;;;;;;;;;5111074;28;20640;-65
2023/03/09 14:21:04;;;;;;;9.68;2.30;;;;;;;;;;5110639;28;20039;-64
2023/03/09 14:23:38;;;;;;;8.82;2.10;;;;;;;;;;5111198;28;20502;-64
2023/03/09 14:26:04;;;;;;;11.40;2.28;;;;;;;;;;5111317;28;20048;-65
2023/03/09 14:28:34;;;;;;;13.77;2.00;;;;;;;;;;5111255;28;20138;-64
2023/03/09 14:31:14;;;;;;;10.40;2.25;;;;;;;;;;5111543;28;20047;-64
2023/03/09 14:33:55;;;;;;;6.75;2.15;;;;;;;;;;5111064;28;20047;-64
2023/03/09 14:36:22;;;;;;;12.93;2.20;;;;;;;;;;5111333;28;20082;-64
2023/03/09 14:38:54;;;;;;;10.15;2.30;;;;;;;;;;5111073;28;20421;-64
2023/03/09 14:41:22;;;;;;;10.93;2.08;;;;;;;;;;5111262;28;20429;-64
2023/03/09 14:43:50;;;;;;;12.43;2.20;;;;;;;;;;5111096;28;20399;-64
2023/03/09 14:46:19;;;;;;;11.52;2.85;;;;;;;;;;5110887;28;20069;-64
2023/03/09 14:48:46;;;;;;;12.38;2.50;;;;;;;;;;5111362;28;20044;-64
2023/03/09 14:51:18;;;;;;;8.55;2.25;;;;;;;;;;5111852;28;20130;-65
2023/03/09 14:53:57;;;;;;;10.88;2.60;;;;;;;;;;5111121;28;20336;-65